Time;durP1;ratioP1;P1;durP2;ratioP2;P2;SDS_P1;SDS_P2;PMS_P1;PMS_P2;Temp;Humidity;BMP_temperature;BMP_pressure;BME280_temperature;BME280_humidity;BME280_pressure;Samples;Min_cycle;Max_cycle;Signal;HPM_P1;HPM_P2
2023/09/03 15:27:45;;;;;;;;;;;;;;;;;;5730335;22;19942;-85
2023/09/03 15:30:11;;;;;;;;;;;;;;;;;;5064502;28;19981;-85
2023/09/03 15:32:37;;;;;;;;;;;;;;;;;;5073544;28;20023;-84
2023/09/03 15:35:03;;;;;;;;;;;;;;;;;;5077695;28;19915;-85
2023/09/03 15:37:29;;;;;;;;;;;;;;;;;;5075296;28;19928;-84
2023/09/03 15:39:55;;;;;;;;;;;;;;;;;;5074858;28;20018;-85
2023/09/03 15:42:21;;;;;;;;;;;;;;;;;;5073118;28;19922;-85
2023/09/03 15:44:47;;;;;;;;;;;;;;;;;;5074133;28;19944;-85
2023/09/03 15:47:13;;;;;;;;;;;;;;;;;;5054616;28;20515;-84
2023/09/03 15:49:39;;;;;;;;;;;;;;;;;;5071457;28;19915;-85
2023/09/03 15:52:05;;;;;;;;;;;;;;;;;;5061146;28;19945;-85
2023/09/03 15:54:32;;;;;;;;;;;;;;;;;;5070262;28;20554;-85
2023/09/03 15:56:58;;;;;;;;;;;;;;;;;;5070164;28;19915;-84
2023/09/03 15:59:25;;;;;;;;;;;;;;;;;;5055609;28;19924;-84
2023/09/03 16:01:53;;;;;;;;;;;;;;;;;;5075899;28;19915;-83
2023/09/03 16:04:19;;;;;;;;;;;;;;;;;;5068704;28;20338;-84
2023/09/03 16:06:45;;;;;;;;;;;;;;;;;;5053468;28;19928;-85
2023/09/03 16:09:10;;;;;;;;;;;;;;;;;;5073312;28;19916;-83
2023/09/03 16:11:36;;;;;;;;;;;;;;;;;;5071123;28;19920;-85
2023/09/03 16:14:02;;;;;;;;;;;;;;;;;;5073162;28;19923;-85
2023/09/03 16:16:28;;;;;;;;;;;;;;;;;;5074183;28;20407;-85
2023/09/03 16:18:54;;;;;;;;;;;;;;;;;;5072384;28;19920;-86
2023/09/03 16:21:20;;;;;;;;;;;;;;;;;;5069025;28;20158;-86
2023/09/03 16:23:46;;;;;;;;;;;;;;;;;;5073014;28;19942;-85
2023/09/03 16:26:12;;;;;;;;;;;;;;;;;;5075445;28;19927;-84
2023/09/03 16:28:38;;;;;;;;;;;;;;;;;;4967228;28;20415;-84
2023/09/03 16:31:04;;;;;;;;;;;;;;;;;;5049346;28;19920;-84
2023/09/03 16:33:30;;;;;;;;;;;;;;;;;;5052288;28;19927;-85
2023/09/03 16:35:56;;;;;;;;;;;;;;;;;;5048225;28;19916;-84
2023/09/03 16:38:22;;;;;;;;;;;;;;;;;;5021634;28;19924;-84
2023/09/03 16:40:47;;;;;;;;;;;;;;;;;;5026183;28;19920;-84
2023/09/03 16:43:16;;;;;;;;;;;;;;;;;;5022690;28;20343;-84
2023/09/03 16:45:42;;;;;;;;;;;;;;;;;;5025779;28;19925;-83
2023/09/03 16:48:08;;;;;;;;;;;;;;;;;;5029787;28;20433;-84
2023/09/03 16:50:34;;;;;;;;;;;;;;;;;;5031327;28;19973;-83
2023/09/03 16:53:02;;;;;;;;;;;;;;;;;;5031177;28;19924;-84
2023/09/03 16:55:28;;;;;;;;;;;;;;;;;;5032629;28;19920;-83
2023/09/03 16:57:54;;;;;;;;;;;;;;;;;;5032270;28;19927;-84
2023/09/03 17:00:20;;;;;;;;;;;;;;;;;;5015907;28;19968;-84
2023/09/03 17:02:46;;;;;;;;;;;;;;;;;;5030173;28;19931;-84
2023/09/03 17:05:11;;;;;;;;;;;;;;;;;;5032644;28;20030;-84
2023/09/03 17:07:37;;;;;;;;;;;;;;;;;;5027298;28;19984;-84
2023/09/03 17:10:03;;;;;;;;;;;;;;;;;;5031474;28;20375;-84
2023/09/03 17:12:29;;;;;;;;;;;;;;;;;;5025751;28;20177;-83
2023/09/03 17:14:55;;;;;;;;;;;;;;;;;;5031747;28;19929;-78
2023/09/03 17:17:21;;;;;;;;;;;;;;;;;;5039499;28;19928;-81
2023/09/03 17:19:47;;;;;;;;;;;;;;;;;;5040702;28;19928;-82
2023/09/03 17:22:16;;;;;;;;;;;;;;;;;;5037297;28;19929;-83
2023/09/03 17:24:42;;;;;;;;;;;;;;;;;;5033458;28;20047;-84
2023/09/03 17:27:08;;;;;;;;;;;;;;;;;;5039792;28;20105;-83
2023/09/03 17:29:33;;;;;;;;;;;;;;;;;;5042401;28;20031;-83
2023/09/03 17:31:59;;;;;;;;;;;;;;;;;;5040564;28;19964;-84
2023/09/03 17:34:26;;;;;;;;;;;;;;;;;;5038170;28;19923;-87
2023/09/03 17:36:52;;;;;;;;;;;;;;;;;;5040431;28;19984;-80
2023/09/03 17:39:17;;;;;;;;;;;;;;;;;;5039032;28;19929;-83
2023/09/03 17:41:44;;;;;;;;;;;;;;;;;;5039538;28;19920;-83
2023/09/03 17:44:10;;;;;;;;;;;;;;;;;;5038250;28;19927;-84
2023/09/03 17:46:36;;;;;;;;;;;;;;;;;;5037713;28;19920;-85
2023/09/03 17:49:03;;;;;;;;;;;;;;;;;;5033977;28;19920;-84
2023/09/03 17:51:29;;;;;;;;;;;;;;;;;;5037524;28;19923;-82
2023/09/03 17:53:56;;;;;;;;;;;;;;;;;;5035475;28;20167;-85
2023/09/03 17:56:21;;;;;;;;;;;;;;;;;;5036601;28;19920;-84
2023/09/03 17:58:47;;;;;;;;;;;;;;;;;;5035807;28;19926;-84
2023/09/03 18:01:13;;;;;;;;;;;;;;;;;;5037308;28;19986;-83
2023/09/03 18:03:39;;;;;;;;;;;;;;;;;;5036663;28;19922;-85
2023/09/03 18:06:05;;;;;;;;;;;;;;;;;;5038252;28;20017;-83
2023/09/03 18:08:31;;;;;;;;;;;;;;;;;;5040041;28;20422;-83
2023/09/03 18:10:57;;;;;;;;;;;;;;;;;;5038002;28;19920;-85
2023/09/03 18:13:23;;;;;;;;;;;;;;;;;;5038661;28;19920;-84
2023/09/03 18:18:55;;;;;;;;;;;;;;;;;;5031896;28;20051;-84
2023/09/03 18:32:30;;;;;;;;;;;;;;;;;;5028191;28;20023;-84
2023/09/03 19:58:33;;;;;;;;;;;;;;;;;;;;;
2023/09/03 20:01:17;;;;;;;;;;;;;;;;;;4997461;28;19913;-85
2023/09/03 20:12:09;;;;;;;;;;;;;;;;;;4992803;28;19951;-85
2023/09/03 20:17:34;;;;;;;;;;;;;;;;;;5000922;28;20079;-86
2023/09/03 20:20:14;;;;;;;;;;;;;;;;;;;;;
2023/09/03 20:22:56;;;;;;;;;;;;;;;;;;;;;
2023/09/03 20:25:38;;;;;;;;;;;;;;;;;;;;;
2023/09/03 20:31:14;;;;;;;;;;;;;;;;;;5004913;28;19916;-84
2023/09/03 20:42:15;;;;;;;;;;;;;;;;;;5008574;28;19941;-85
2023/09/03 20:47:26;;;;;;;;;;;;;;;;;;5006371;28;19933;-86
2023/09/03 20:52:38;;;;;;;;;;;;;;;;;;4986087;28;20005;-85
2023/09/03 20:55:20;;;;;;;;;;;;;;;;;;;;;
2023/09/03 20:57:52;;;;;;;;;;;;;;;;;;4944754;28;19918;-86
2023/09/03 21:00:20;;;;;;;;;;;;;;;;;;4951024;29;20436;-86
2023/09/03 21:05:32;;;;;;;;;;;;;;;;;;4950872;29;20356;-85
2023/09/03 21:08:17;;;;;;;;;;;;;;;;;;;;;
2023/09/03 21:10:59;;;;;;;;;;;;;;;;;;;;;
2023/09/03 21:13:26;;;;;;;;;;;;;;;;;;4910826;29;19918;-85
2023/09/03 21:15:53;;;;;;;;;;;;;;;;;;4914328;29;20348;-85
2023/09/03 21:18:33;;;;;;;;;;;;;;;;;;4931124;29;19918;-85
2023/09/03 21:21:05;;;;;;;;;;;;;;;;;;4947088;28;19988;-86
2023/09/03 21:23:34;;;;;;;;;;;;;;;;;;4975639;28;19917;-86
2023/09/03 21:28:52;;;;;;;;;;;;;;;;;;4982815;28;19917;-85
2023/09/03 21:31:18;;;;;;;;;;;;;;;;;;4988622;28;19923;-85
2023/09/03 21:33:44;;;;;;;;;;;;;;;;;;4975611;28;19921;-85
2023/09/03 21:36:10;;;;;;;;;;;;;;;;;;4975768;28;19916;-86
2023/09/03 21:38:35;;;;;;;;;;;;;;;;;;4978647;28;19924;-85
2023/09/03 21:41:01;;;;;;;;;;;;;;;;;;4972017;28;20382;-84
2023/09/03 21:43:27;;;;;;;;;;;;;;;;;;4986721;28;19953;-85
2023/09/03 21:45:53;;;;;;;;;;;;;;;;;;4971805;28;19932;-84
2023/09/03 21:48:20;;;;;;;;;;;;;;;;;;4971883;28;20342;-84
2023/09/03 21:50:46;;;;;;;;;;;;;;;;;;4972251;28;20398;-84
2023/09/03 21:53:12;;;;;;;;;;;;;;;;;;4973866;28;19925;-86
2023/09/03 21:55:37;;;;;;;;;;;;;;;;;;4973773;28;19921;-86
2023/09/03 21:58:03;;;;;;;;;;;;;;;;;;4981035;28;20020;-86
2023/09/03 22:00:29;;;;;;;;;;;;;;;;;;4984466;28;19925;-85
2023/09/03 22:02:55;;;;;;;;;;;;;;;;;;4975678;28;19921;-86
2023/09/03 22:05:21;;;;;;;;;;;;;;;;;;4977615;28;19922;-85
2023/09/03 22:07:47;;;;;;;;;;;;;;;;;;4982313;28;19949;-86
2023/09/03 22:10:13;;;;;;;;;;;;;;;;;;4970898;28;20333;-86
2023/09/03 22:12:39;;;;;;;;;;;;;;;;;;4978936;28;20432;-86
2023/09/03 22:15:05;;;;;;;;;;;;;;;;;;4982417;28;19921;-86
2023/09/03 22:17:31;;;;;;;;;;;;;;;;;;4981820;28;19921;-85
2023/09/03 22:19:57;;;;;;;;;;;;;;;;;;4977515;28;19927;-86
2023/09/03 22:22:22;;;;;;;;;;;;;;;;;;4978576;28;20344;-86
2023/09/03 22:24:48;;;;;;;;;;;;;;;;;;4974914;28;19988;-85
2023/09/03 22:27:14;;;;;;;;;;;;;;;;;;4986005;28;20344;-86
2023/09/03 22:29:40;;;;;;;;;;;;;;;;;;4973560;28;19928;-85
2023/09/03 22:32:06;;;;;;;;;;;;;;;;;;4986199;28;20019;-86
2023/09/03 22:34:32;;;;;;;;;;;;;;;;;;4981682;28;20487;-86
2023/09/03 22:36:58;;;;;;;;;;;;;;;;;;4980896;28;19921;-85
2023/09/03 22:39:24;;;;;;;;;;;;;;;;;;4979615;28;19933;-85
2023/09/03 22:41:50;;;;;;;;;;;;;;;;;;4976889;28;20029;-86
2023/09/03 22:44:15;;;;;;;;;;;;;;;;;;4975488;28;20011;-84
2023/09/03 22:46:41;;;;;;;;;;;;;;;;;;4976327;28;19925;-85
2023/09/03 22:49:07;;;;;;;;;;;;;;;;;;4978112;28;19922;-85
2023/09/03 22:51:33;;;;;;;;;;;;;;;;;;4983868;28;19932;-86
2023/09/03 22:53:59;;;;;;;;;;;;;;;;;;4975910;28;20033;-85
2023/09/03 22:56:25;;;;;;;;;;;;;;;;;;4984619;28;19921;-85
2023/09/03 22:58:51;;;;;;;;;;;;;;;;;;4969747;28;19921;-86
2023/09/03 23:01:17;;;;;;;;;;;;;;;;;;4978209;28;19925;-87
2023/09/03 23:03:43;;;;;;;;;;;;;;;;;;4980942;28;20600;-86
2023/09/03 23:06:09;;;;;;;;;;;;;;;;;;4987307;28;20431;-86
2023/09/03 23:08:35;;;;;;;;;;;;;;;;;;4981734;28;19917;-86
2023/09/03 23:11:01;;;;;;;;;;;;;;;;;;4986328;28;19921;-85
2023/09/03 23:13:27;;;;;;;;;;;;;;;;;;4988713;28;19921;-85
2023/09/03 23:15:52;;;;;;;;;;;;;;;;;;4987327;28;19928;-85
2023/09/03 23:18:21;;;;;;;;;;;;;;;;;;4988530;28;19921;-85
2023/09/03 23:20:47;;;;;;;;;;;;;;;;;;4986653;28;19921;-86
2023/09/03 23:23:13;;;;;;;;;;;;;;;;;;4968877;28;20080;-85
2023/09/03 23:25:39;;;;;;;;;;;;;;;;;;4984249;28;20527;-85
2023/09/03 23:28:05;;;;;;;;;;;;;;;;;;4987842;28;19928;-83
2023/09/03 23:30:31;;;;;;;;;;;;;;;;;;4987437;28;19917;-86
2023/09/03 23:32:57;;;;;;;;;;;;;;;;;;4972899;28;19933;-86
2023/09/03 23:35:23;;;;;;;;;;;;;;;;;;4982381;28;20016;-86
2023/09/03 23:37:49;;;;;;;;;;;;;;;;;;4976815;28;20415;-83
2023/09/03 23:40:15;;;;;;;;;;;;;;;;;;4976153;28;19917;-85
2023/09/03 23:42:41;;;;;;;;;;;;;;;;;;4977038;28;19926;-85
2023/09/03 23:45:06;;;;;;;;;;;;;;;;;;4986284;28;19925;-87
2023/09/03 23:47:32;;;;;;;;;;;;;;;;;;4984242;28;19925;-86
2023/09/03 23:49:58;;;;;;;;;;;;;;;;;;4983198;28;19965;-86
2023/09/03 23:52:24;;;;;;;;;;;;;;;;;;4984683;28;20024;-86
2023/09/03 23:54:50;;;;;;;;;;;;;;;;;;4985243;28;20028;-86
2023/09/03 23:57:16;;;;;;;;;;;;;;;;;;4978086;28;20015;-87
2023/09/03 23:59:42;;;;;;;;;;;;;;;;;;4983827;28;20335;-87
